sensor_id;sensor_type;location;lat;lon;timestamp;pressure;altitude;pressure_sealevel;temperature;humidity
66762;BME280;53672;48.176;16.338;2022-08-19T00:03:06;98388.66;;;22.81;62.14
66762;BME280;53672;48.176;16.338;2022-08-19T00:08:08;98394.41;;;23.09;61.62
66762;BME280;53672;48.176;16.338;2022-08-19T00:13:09;98395.56;;;23.08;61.67
66762;BME280;53672;48.176;16.338;2022-08-19T00:18:09;98383.25;;;22.92;62.02
66762;BME280;53672;48.176;16.338;2022-08-19T00:23:11;98380.41;;;22.81;62.07
66762;BME280;53672;48.176;16.338;2022-08-19T00:28:11;98392.13;;;22.74;62.54
66762;BME280;53672;48.176;16.338;2022-08-19T00:33:12;98386.28;;;22.76;62.83
66762;BME280;53672;48.176;16.338;2022-08-19T00:38:14;98385.31;;;23.02;61.89
66762;BME280;53672;48.176;16.338;2022-08-19T00:43:18;98378.56;;;22.92;62.40
66762;BME280;53672;48.176;16.338;2022-08-19T00:48:20;98374.44;;;22.72;62.64
66762;BME280;53672;48.176;16.338;2022-08-19T00:53:24;98373.66;;;22.71;62.63
66762;BME280;53672;48.176;16.338;2022-08-19T00:58:30;98382.50;;;22.95;62.03
66762;BME280;53672;48.176;16.338;2022-08-19T01:03:32;98363.31;;;23.02;61.10
66762;BME280;53672;48.176;16.338;2022-08-19T01:08:34;98378.63;;;22.99;60.98
66762;BME280;53672;48.176;16.338;2022-08-19T01:13:35;98384.88;;;22.96;61.29
66762;BME280;53672;48.176;16.338;2022-08-19T01:18:39;98385.94;;;22.85;61.85
66762;BME280;53672;48.176;16.338;2022-08-19T01:23:42;98383.06;;;22.67;62.12
66762;BME280;53672;48.176;16.338;2022-08-19T01:28:44;98385.81;;;22.67;62.11
66762;BME280;53672;48.176;16.338;2022-08-19T01:33:46;98389.84;;;22.80;61.33
66762;BME280;53672;48.176;16.338;2022-08-19T01:38:48;98389.47;;;22.85;60.75
66762;BME280;53672;48.176;16.338;2022-08-19T01:43:49;98402.44;;;22.85;60.78
66762;BME280;53672;48.176;16.338;2022-08-19T01:48:49;98403.56;;;22.77;60.83
66762;BME280;53672;48.176;16.338;2022-08-19T01:53:51;98403.88;;;22.71;60.51
66762;BME280;53672;48.176;16.338;2022-08-19T01:58:56;98410.53;;;22.67;60.06
66762;BME280;53672;48.176;16.338;2022-08-19T02:03:57;98434.34;;;22.59;59.92
66762;BME280;53672;48.176;16.338;2022-08-19T02:09:00;98448.09;;;22.59;59.80
66762;BME280;53672;48.176;16.338;2022-08-19T02:14:02;98443.41;;;22.60;59.35
66762;BME280;53672;48.176;16.338;2022-08-19T02:19:04;98439.78;;;22.52;58.97
66762;BME280;53672;48.176;16.338;2022-08-19T02:24:06;98419.38;;;22.53;58.67
66762;BME280;53672;48.176;16.338;2022-08-19T02:29:06;98430.38;;;22.53;58.84
66762;BME280;53672;48.176;16.338;2022-08-19T02:34:07;98439.38;;;22.54;59.36
66762;BME280;53672;48.176;16.338;2022-08-19T02:39:09;98418.16;;;22.51;59.69
66762;BME280;53672;48.176;16.338;2022-08-19T02:44:09;98424.00;;;22.46;60.53
66762;BME280;53672;48.176;16.338;2022-08-19T02:49:09;98420.03;;;22.40;61.60
66762;BME280;53672;48.176;16.338;2022-08-19T02:54:12;98416.88;;;22.41;62.28
66762;BME280;53672;48.176;16.338;2022-08-19T02:59:12;98420.34;;;22.35;63.69
66762;BME280;53672;48.176;16.338;2022-08-19T03:04:15;98422.25;;;22.31;64.12
66762;BME280;53672;48.176;16.338;2022-08-19T03:09:19;98432.91;;;22.36;64.22
66762;BME280;53672;48.176;16.338;2022-08-19T03:14:19;98429.28;;;22.28;64.57
66762;BME280;53672;48.176;16.338;2022-08-19T03:19:20;98436.78;;;22.31;64.59
66762;BME280;53672;48.176;16.338;2022-08-19T03:24:23;98435.31;;;22.41;64.72
66762;BME280;53672;48.176;16.338;2022-08-19T03:29:24;98435.63;;;22.32;65.65
66762;BME280;53672;48.176;16.338;2022-08-19T03:34:27;98475.09;;;22.20;65.90
66762;BME280;53672;48.176;16.338;2022-08-19T03:39:29;98473.44;;;22.16;65.99
66762;BME280;53672;48.176;16.338;2022-08-19T03:44:30;98485.47;;;22.34;65.67
66762;BME280;53672;48.176;16.338;2022-08-19T03:49:32;98482.00;;;22.41;65.76
66762;BME280;53672;48.176;16.338;2022-08-19T03:54:34;98487.19;;;22.46;65.82
66762;BME280;53672;48.176;16.338;2022-08-19T03:59:36;98484.13;;;22.54;65.55
66762;BME280;53672;48.176;16.338;2022-08-19T04:04:38;98497.38;;;22.45;66.20
66762;BME280;53672;48.176;16.338;2022-08-19T04:09:40;98501.22;;;22.41;66.18
66762;BME280;53672;48.176;16.338;2022-08-19T04:14:41;98498.81;;;22.36;66.96
66762;BME280;53672;48.176;16.338;2022-08-19T04:19:41;98508.72;;;22.44;66.66
66762;BME280;53672;48.176;16.338;2022-08-19T04:24:43;98514.66;;;22.46;67.16
66762;BME280;53672;48.176;16.338;2022-08-19T04:29:44;98518.53;;;22.45;67.58
66762;BME280;53672;48.176;16.338;2022-08-19T04:34:44;98515.41;;;22.43;67.54
66762;BME280;53672;48.176;16.338;2022-08-19T04:39:46;98532.38;;;22.52;67.04
66762;BME280;53672;48.176;16.338;2022-08-19T04:44:46;98536.75;;;22.56;66.79
66762;BME280;53672;48.176;16.338;2022-08-19T04:49:47;98537.94;;;22.59;66.80
66762;BME280;53672;48.176;16.338;2022-08-19T04:54:49;98554.59;;;22.69;65.76
66762;BME280;53672;48.176;16.338;2022-08-19T04:59:53;98538.47;;;23.01;64.41
66762;BME280;53672;48.176;16.338;2022-08-19T05:04:56;98540.63;;;23.18;63.92
66762;BME280;53672;48.176;16.338;2022-08-19T05:09:58;98546.63;;;23.31;63.71
66762;BME280;53672;48.176;16.338;2022-08-19T05:14:59;98554.22;;;23.41;63.43
66762;BME280;53672;48.176;16.338;2022-08-19T05:19:59;98556.28;;;23.51;64.04
66762;BME280;53672;48.176;16.338;2022-08-19T05:25:04;98569.63;;;23.53;63.96
66762;BME280;53672;48.176;16.338;2022-08-19T05:30:05;98591.28;;;23.54;64.36
66762;BME280;53672;48.176;16.338;2022-08-19T05:35:07;98586.47;;;23.44;65.09
66762;BME280;53672;48.176;16.338;2022-08-19T05:40:09;98605.94;;;23.29;65.57
66762;BME280;53672;48.176;16.338;2022-08-19T05:45:10;98629.47;;;23.26;65.67
66762;BME280;53672;48.176;16.338;2022-08-19T05:50:11;98633.44;;;23.29;65.84
66762;BME280;53672;48.176;16.338;2022-08-19T05:55:13;98644.81;;;23.27;66.00
66762;BME280;53672;48.176;16.338;2022-08-19T06:00:14;98657.47;;;23.35;66.06
66762;BME280;53672;48.176;16.338;2022-08-19T06:05:14;98636.75;;;23.41;65.76
66762;BME280;53672;48.176;16.338;2022-08-19T06:10:16;98653.34;;;23.52;65.47
66762;BME280;53672;48.176;16.338;2022-08-19T06:15:17;98666.34;;;23.55;65.13
66762;BME280;53672;48.176;16.338;2022-08-19T06:20:17;98676.94;;;23.53;65.41
66762;BME280;53672;48.176;16.338;2022-08-19T06:25:19;98656.31;;;23.40;66.45
66762;BME280;53672;48.176;16.338;2022-08-19T06:30:20;98648.38;;;23.31;66.48
66762;BME280;53672;48.176;16.338;2022-08-19T06:35:20;98651.63;;;23.40;66.37
66762;BME280;53672;48.176;16.338;2022-08-19T06:40:22;98659.94;;;23.44;66.05
66762;BME280;53672;48.176;16.338;2022-08-19T06:45:23;98671.91;;;23.58;65.65
66762;BME280;53672;48.176;16.338;2022-08-19T06:50:24;98657.13;;;23.77;65.19
66762;BME280;53672;48.176;16.338;2022-08-19T06:55:26;98651.84;;;24.02;64.28
66762;BME280;53672;48.176;16.338;2022-08-19T07:00:26;98626.09;;;24.24;63.36
66762;BME280;53672;48.176;16.338;2022-08-19T07:05:27;98638.34;;;24.34;63.02
66762;BME280;53672;48.176;16.338;2022-08-19T07:10:29;98641.22;;;24.48;62.52
66762;BME280;53672;48.176;16.338;2022-08-19T07:15:29;98632.28;;;24.72;62.43
66762;BME280;53672;48.176;16.338;2022-08-19T07:20:29;98630.44;;;24.94;61.48
66762;BME280;53672;48.176;16.338;2022-08-19T07:25:31;98628.91;;;25.10;61.27
66762;BME280;53672;48.176;16.338;2022-08-19T07:30:32;98619.91;;;25.20;60.48
66762;BME280;53672;48.176;16.338;2022-08-19T07:35:32;98613.63;;;25.31;60.12
66762;BME280;53672;48.176;16.338;2022-08-19T07:40:34;98617.25;;;25.52;59.62
66762;BME280;53672;48.176;16.338;2022-08-19T07:45:35;98593.22;;;25.85;58.15
66762;BME280;53672;48.176;16.338;2022-08-19T07:50:35;98566.34;;;26.13;57.60
66762;BME280;53672;48.176;16.338;2022-08-19T07:55:37;98570.25;;;26.48;56.96
66762;BME280;53672;48.176;16.338;2022-08-19T08:00:38;98586.69;;;26.94;55.71
66762;BME280;53672;48.176;16.338;2022-08-19T08:05:39;98587.19;;;27.44;54.17
66762;BME280;53672;48.176;16.338;2022-08-19T08:10:41;98597.22;;;27.86;52.11
66762;BME280;53672;48.176;16.338;2022-08-19T08:15:41;98601.22;;;28.26;51.34
66762;BME280;53672;48.176;16.338;2022-08-19T08:20:42;98594.41;;;28.75;49.28
66762;BME280;53672;48.176;16.338;2022-08-19T08:25:44;98612.97;;;29.11;48.52
66762;BME280;53672;48.176;16.338;2022-08-19T08:30:45;98624.31;;;29.54;47.33
66762;BME280;53672;48.176;16.338;2022-08-19T08:35:46;98621.91;;;29.80;46.22
66762;BME280;53672;48.176;16.338;2022-08-19T08:40:49;98631.69;;;29.91;46.21
66762;BME280;53672;48.176;16.338;2022-08-19T08:45:53;98637.09;;;30.25;45.21
66762;BME280;53672;48.176;16.338;2022-08-19T08:50:56;98637.09;;;30.48;44.49
66762;BME280;53672;48.176;16.338;2022-08-19T08:56:02;98654.53;;;30.72;43.89
66762;BME280;53672;48.176;16.338;2022-08-19T09:01:03;98656.56;;;30.48;44.41
66762;BME280;53672;48.176;16.338;2022-08-19T09:06:07;98635.00;;;30.95;44.33
66762;BME280;53672;48.176;16.338;2022-08-19T09:11:17;98625.16;;;31.30;42.49
66762;BME280;53672;48.176;16.338;2022-08-19T09:16:20;98620.63;;;31.72;40.32
66762;BME280;53672;48.176;16.338;2022-08-19T09:21:21;98610.78;;;32.32;40.46
66762;BME280;53672;48.176;16.338;2022-08-19T09:26:24;98607.69;;;32.88;38.96
66762;BME280;53672;48.176;16.338;2022-08-19T09:31:27;98586.88;;;33.30;37.46
66762;BME280;53672;48.176;16.338;2022-08-19T09:36:27;98575.16;;;33.48;37.40
66762;BME280;53672;48.176;16.338;2022-08-19T09:41:30;98570.31;;;33.99;35.01
66762;BME280;53672;48.176;16.338;2022-08-19T09:46:30;98582.69;;;34.23;33.91
66762;BME280;53672;48.176;16.338;2022-08-19T09:51:30;98582.97;;;34.72;33.79
66762;BME280;53672;48.176;16.338;2022-08-19T09:56:32;98580.50;;;34.40;32.53
66762;BME280;53672;48.176;16.338;2022-08-19T10:01:33;98570.09;;;34.40;33.44
66762;BME280;53672;48.176;16.338;2022-08-19T10:06:35;98559.94;;;33.74;32.28
66762;BME280;53672;48.176;16.338;2022-08-19T10:11:39;98575.97;;;34.08;33.15
66762;BME280;53672;48.176;16.338;2022-08-19T10:16:40;98574.78;;;32.50;34.84
66762;BME280;53672;48.176;16.338;2022-08-19T10:21:41;98573.44;;;32.71;35.23
66762;BME280;53672;48.176;16.338;2022-08-19T10:26:43;98576.28;;;32.55;35.60
66762;BME280;53672;48.176;16.338;2022-08-19T10:31:43;98596.94;;;31.64;37.51
66762;BME280;53672;48.176;16.338;2022-08-19T10:36:44;98612.91;;;31.44;40.82
66762;BME280;53672;48.176;16.338;2022-08-19T10:41:45;98631.84;;;30.54;40.05
66762;BME280;53672;48.176;16.338;2022-08-19T10:46:46;98630.25;;;29.80;43.70
66762;BME280;53672;48.176;16.338;2022-08-19T10:51:46;98596.16;;;28.20;61.44
66762;BME280;53672;48.176;16.338;2022-08-19T10:56:48;98594.66;;;26.74;57.15
66762;BME280;53672;48.176;16.338;2022-08-19T11:01:50;98614.53;;;26.19;56.62
66762;BME280;53672;48.176;16.338;2022-08-19T11:06:51;98621.22;;;25.76;59.73
66762;BME280;53672;48.176;16.338;2022-08-19T11:11:53;98601.09;;;25.65;59.57
66762;BME280;53672;48.176;16.338;2022-08-19T11:16:53;98590.44;;;25.67;56.97
66762;BME280;53672;48.176;16.338;2022-08-19T11:21:54;98584.13;;;25.84;57.38
66762;BME280;53672;48.176;16.338;2022-08-19T11:27:01;98577.81;;;26.08;55.84
66762;BME280;53672;48.176;16.338;2022-08-19T11:32:04;98582.88;;;26.52;54.44
66762;BME280;53672;48.176;16.338;2022-08-19T11:37:05;98587.41;;;27.15;52.38
66762;BME280;53672;48.176;16.338;2022-08-19T11:42:07;98571.09;;;27.28;49.47
66762;BME280;53672;48.176;16.338;2022-08-19T11:47:08;98564.78;;;27.24;48.88
66762;BME280;53672;48.176;16.338;2022-08-19T11:52:08;98565.16;;;27.85;44.56
66762;BME280;53672;48.176;16.338;2022-08-19T11:57:10;98562.31;;;29.34;41.44
66762;BME280;53672;48.176;16.338;2022-08-19T12:02:11;98556.84;;;29.77;40.37
66762;BME280;53672;48.176;16.338;2022-08-19T12:07:11;98554.50;;;29.22;42.51
66762;BME280;53672;48.176;16.338;2022-08-19T12:12:13;98551.03;;;28.88;43.59
66762;BME280;53672;48.176;16.338;2022-08-19T12:17:13;98562.47;;;28.93;42.76
66762;BME280;53672;48.176;16.338;2022-08-19T12:22:14;98550.53;;;29.27;42.39
66762;BME280;53672;48.176;16.338;2022-08-19T12:27:16;98568.78;;;30.47;41.35
66762;BME280;53672;48.176;16.338;2022-08-19T12:32:16;98570.34;;;30.68;40.89
66762;BME280;53672;48.176;16.338;2022-08-19T12:37:17;98579.94;;;29.74;42.01
66762;BME280;53672;48.176;16.338;2022-08-19T12:42:19;98595.91;;;28.83;44.03
66762;BME280;53672;48.176;16.338;2022-08-19T12:47:19;98611.00;;;28.41;45.00
66762;BME280;53672;48.176;16.338;2022-08-19T12:52:20;98618.78;;;28.12;47.53
66762;BME280;53672;48.176;16.338;2022-08-19T12:57:24;98612.50;;;28.04;50.08
66762;BME280;53672;48.176;16.338;2022-08-19T13:02:24;98588.16;;;27.78;50.32
66762;BME280;53672;48.176;16.338;2022-08-19T13:07:25;98583.91;;;27.66;49.35
66762;BME280;53672;48.176;16.338;2022-08-19T13:12:27;98577.66;;;27.59;50.01
66762;BME280;53672;48.176;16.338;2022-08-19T13:17:28;98546.06;;;27.53;50.57
66762;BME280;53672;48.176;16.338;2022-08-19T13:22:28;98555.28;;;27.29;50.78
66762;BME280;53672;48.176;16.338;2022-08-19T13:27:30;98555.31;;;27.21;50.51
66762;BME280;53672;48.176;16.338;2022-08-19T13:32:31;98589.78;;;27.10;50.83
66762;BME280;53672;48.176;16.338;2022-08-19T13:37:31;98599.41;;;26.73;52.99
66762;BME280;53672;48.176;16.338;2022-08-19T13:42:33;98593.97;;;26.35;55.00
66762;BME280;53672;48.176;16.338;2022-08-19T13:47:34;98589.25;;;26.07;56.06
66762;BME280;53672;48.176;16.338;2022-08-19T13:52:35;98552.97;;;26.23;54.20
66762;BME280;53672;48.176;16.338;2022-08-19T13:57:37;98573.44;;;26.43;53.36
66762;BME280;53672;48.176;16.338;2022-08-19T14:02:39;98564.69;;;26.55;53.03
66762;BME280;53672;48.176;16.338;2022-08-19T14:07:39;98580.09;;;26.63;52.82
66762;BME280;53672;48.176;16.338;2022-08-19T14:12:42;98572.56;;;26.70;52.10
66762;BME280;53672;48.176;16.338;2022-08-19T14:17:44;98575.28;;;26.85;51.24
66762;BME280;53672;48.176;16.338;2022-08-19T14:22:47;98564.53;;;27.04;50.56
66762;BME280;53672;48.176;16.338;2022-08-19T14:27:49;98556.91;;;27.23;50.71
66762;BME280;53672;48.176;16.338;2022-08-19T14:32:50;98552.88;;;27.31;51.14
66762;BME280;53672;48.176;16.338;2022-08-19T14:37:51;98513.41;;;27.23;50.66
66762;BME280;53672;48.176;16.338;2022-08-19T14:42:53;98505.94;;;27.13;50.62
66762;BME280;53672;48.176;16.338;2022-08-19T14:47:54;98485.78;;;27.12;48.77
66762;BME280;53672;48.176;16.338;2022-08-19T14:52:58;98475.94;;;27.11;49.42
66762;BME280;53672;48.176;16.338;2022-08-19T14:58:00;98470.44;;;27.08;48.33
66762;BME280;53672;48.176;16.338;2022-08-19T15:03:01;98449.13;;;27.01;48.09
66762;BME280;53672;48.176;16.338;2022-08-19T15:08:03;98425.00;;;27.05;48.21
66762;BME280;53672;48.176;16.338;2022-08-19T15:13:05;98415.88;;;27.08;48.64
66762;BME280;53672;48.176;16.338;2022-08-19T15:18:05;98428.47;;;27.13;48.62
66762;BME280;53672;48.176;16.338;2022-08-19T15:23:06;98425.41;;;27.00;47.95
66762;BME280;53672;48.176;16.338;2022-08-19T15:28:08;98433.78;;;26.93;48.67
66762;BME280;53672;48.176;16.338;2022-08-19T15:33:10;98425.16;;;26.84;48.89
66762;BME280;53672;48.176;16.338;2022-08-19T15:38:10;98440.56;;;26.82;49.42
66762;BME280;53672;48.176;16.338;2022-08-19T15:43:12;98428.69;;;26.88;48.31
66762;BME280;53672;48.176;16.338;2022-08-19T15:48:13;98447.22;;;26.91;48.81
66762;BME280;53672;48.176;16.338;2022-08-19T15:53:13;98449.19;;;26.91;48.75
66762;BME280;53672;48.176;16.338;2022-08-19T15:58:15;98462.69;;;26.82;48.88
66762;BME280;53672;48.176;16.338;2022-08-19T16:03:16;98458.28;;;26.95;47.96
66762;BME280;53672;48.176;16.338;2022-08-19T16:08:16;98449.81;;;27.12;46.21
66762;BME280;53672;48.176;16.338;2022-08-19T16:13:18;98461.66;;;27.16;45.11
66762;BME280;53672;48.176;16.338;2022-08-19T16:18:18;98469.63;;;27.07;45.43
66762;BME280;53672;48.176;16.338;2022-08-19T16:23:19;98473.66;;;26.96;46.91
66762;BME280;53672;48.176;16.338;2022-08-19T16:28:20;98473.78;;;26.75;46.66
66762;BME280;53672;48.176;16.338;2022-08-19T16:33:21;98483.28;;;26.70;46.73
66762;BME280;53672;48.176;16.338;2022-08-19T16:38:21;98480.88;;;26.72;46.82
66762;BME280;53672;48.176;16.338;2022-08-19T16:43:23;98478.91;;;26.72;47.25
66762;BME280;53672;48.176;16.338;2022-08-19T16:48:25;98478.91;;;26.72;47.21
66762;BME280;53672;48.176;16.338;2022-08-19T16:53:27;98476.63;;;26.57;47.07
66762;BME280;53672;48.176;16.338;2022-08-19T16:58:30;98465.16;;;26.58;47.12
66762;BME280;53672;48.176;16.338;2022-08-19T17:03:31;98475.88;;;26.49;47.54
66762;BME280;53672;48.176;16.338;2022-08-19T17:08:31;98480.97;;;26.51;47.38
66762;BME280;53672;48.176;16.338;2022-08-19T17:13:33;98490.88;;;26.45;47.48
66762;BME280;53672;48.176;16.338;2022-08-19T17:18:34;98494.47;;;26.42;47.12
66762;BME280;53672;48.176;16.338;2022-08-19T17:23:35;98486.59;;;26.33;47.28
66762;BME280;53672;48.176;16.338;2022-08-19T17:28:36;98478.72;;;26.28;47.56
66762;BME280;53672;48.176;16.338;2022-08-19T17:33:37;98480.31;;;26.22;48.04
66762;BME280;53672;48.176;16.338;2022-08-19T17:38:38;98465.31;;;26.16;47.20
66762;BME280;53672;48.176;16.338;2022-08-19T17:43:39;98477.19;;;26.06;47.35
66762;BME280;53672;48.176;16.338;2022-08-19T17:48:40;98483.53;;;25.99;47.77
66762;BME280;53672;48.176;16.338;2022-08-19T17:53:41;98488.25;;;25.95;47.70
66762;BME280;53672;48.176;16.338;2022-08-19T17:58:42;98500.88;;;25.89;47.96
66762;BME280;53672;48.176;16.338;2022-08-19T18:03:43;98524.97;;;25.85;48.12
66762;BME280;53672;48.176;16.338;2022-08-19T18:08:44;98538.38;;;25.76;48.89
66762;BME280;53672;48.176;16.338;2022-08-19T18:13:46;98549.03;;;25.70;48.90
66762;BME280;53672;48.176;16.338;2022-08-19T18:18:47;98543.91;;;25.69;49.18
66762;BME280;53672;48.176;16.338;2022-08-19T18:23:47;98547.44;;;25.66;50.65
66762;BME280;53672;48.176;16.338;2022-08-19T18:28:49;98553.38;;;25.61;50.75
66762;BME280;53672;48.176;16.338;2022-08-19T18:33:50;98553.75;;;25.56;51.35
66762;BME280;53672;48.176;16.338;2022-08-19T18:38:50;98536.41;;;25.52;52.18
66762;BME280;53672;48.176;16.338;2022-08-19T18:43:52;98519.44;;;25.46;52.60
66762;BME280;53672;48.176;16.338;2022-08-19T18:48:54;98507.59;;;25.39;52.14
66762;BME280;53672;48.176;16.338;2022-08-19T18:53:55;98520.22;;;25.33;52.62
66762;BME280;53672;48.176;16.338;2022-08-19T18:58:57;98553.69;;;25.28;52.72
66762;BME280;53672;48.176;16.338;2022-08-19T19:04:00;98561.56;;;25.22;53.76
66762;BME280;53672;48.176;16.338;2022-08-19T19:09:01;98548.53;;;25.08;55.18
66762;BME280;53672;48.176;16.338;2022-08-19T19:14:05;98549.28;;;24.88;56.44
66762;BME280;53672;48.176;16.338;2022-08-19T19:19:06;98540.53;;;24.71;57.44
66762;BME280;53672;48.176;16.338;2022-08-19T19:24:07;98540.09;;;24.59;58.32
66762;BME280;53672;48.176;16.338;2022-08-19T19:29:08;98547.13;;;24.49;59.49
66762;BME280;53672;48.176;16.338;2022-08-19T19:34:10;98586.84;;;24.41;60.21
66762;BME280;53672;48.176;16.338;2022-08-19T19:39:11;98601.34;;;24.31;59.92
66762;BME280;53672;48.176;16.338;2022-08-19T19:44:13;98634.34;;;24.20;60.75
66762;BME280;53672;48.176;16.338;2022-08-19T19:49:14;98657.88;;;24.14;60.84
66762;BME280;53672;48.176;16.338;2022-08-19T19:54:14;98699.63;;;24.16;61.18
66762;BME280;53672;48.176;16.338;2022-08-19T19:59:17;98736.06;;;23.66;66.50
66762;BME280;53672;48.176;16.338;2022-08-19T20:04:17;98743.47;;;23.02;69.45
66762;BME280;53672;48.176;16.338;2022-08-19T20:09:19;98743.66;;;22.64;73.21
66762;BME280;53672;48.176;16.338;2022-08-19T20:14:23;98742.00;;;22.10;78.22
66762;BME280;53672;48.176;16.338;2022-08-19T20:19:26;98730.44;;;21.79;81.73
66762;BME280;53672;48.176;16.338;2022-08-19T20:24:29;98725.91;;;21.67;82.38
66762;BME280;53672;48.176;16.338;2022-08-19T20:29:31;98715.28;;;21.65;85.22
66762;BME280;53672;48.176;16.338;2022-08-19T20:34:32;98718.03;;;21.65;89.68
66762;BME280;53672;48.176;16.338;2022-08-19T20:39:32;98749.34;;;21.64;84.37
66762;BME280;53672;48.176;16.338;2022-08-19T20:44:34;98747.84;;;21.67;84.07
66762;BME280;53672;48.176;16.338;2022-08-19T20:49:35;98762.44;;;21.71;86.67
66762;BME280;53672;48.176;16.338;2022-08-19T20:54:35;98764.00;;;21.72;87.91
66762;BME280;53672;48.176;16.338;2022-08-19T20:59:37;98769.16;;;21.73;90.24
66762;BME280;53672;48.176;16.338;2022-08-19T21:04:37;98758.09;;;21.70;88.65
66762;BME280;53672;48.176;16.338;2022-08-19T21:09:38;98763.78;;;21.61;84.27
66762;BME280;53672;48.176;16.338;2022-08-19T21:14:41;98780.19;;;21.58;82.63
66762;BME280;53672;48.176;16.338;2022-08-19T21:19:42;98781.63;;;21.52;82.08
66762;BME280;53672;48.176;16.338;2022-08-19T21:24:42;98779.63;;;21.49;84.38
66762;BME280;53672;48.176;16.338;2022-08-19T21:29:44;98790.09;;;21.43;84.63
66762;BME280;53672;48.176;16.338;2022-08-19T21:34:45;98783.72;;;21.39;86.98
66762;BME280;53672;48.176;16.338;2022-08-19T21:39:45;98777.69;;;21.30;85.16
66762;BME280;53672;48.176;16.338;2022-08-19T21:44:47;98756.09;;;21.29;88.21
66762;BME280;53672;48.176;16.338;2022-08-19T21:49:48;98735.88;;;21.17;83.89
66762;BME280;53672;48.176;16.338;2022-08-19T21:54:48;98736.88;;;21.09;82.72
66762;BME280;53672;48.176;16.338;2022-08-19T21:59:50;98734.25;;;20.97;83.08
66762;BME280;53672;48.176;16.338;2022-08-19T22:04:51;98734.81;;;20.87;84.52
66762;BME280;53672;48.176;16.338;2022-08-19T22:09:52;98723.41;;;20.85;84.46
66762;BME280;53672;48.176;16.338;2022-08-19T22:14:54;98726.78;;;20.79;82.19
66762;BME280;53672;48.176;16.338;2022-08-19T22:19:55;98734.06;;;20.71;79.30
66762;BME280;53672;48.176;16.338;2022-08-19T22:25:03;98737.75;;;20.63;79.01
66762;BME280;53672;48.176;16.338;2022-08-19T22:30:07;98738.31;;;20.53;77.97
66762;BME280;53672;48.176;16.338;2022-08-19T22:35:08;98734.34;;;20.50;78.93
66762;BME280;53672;48.176;16.338;2022-08-19T22:40:11;98757.66;;;20.29;79.07
66762;BME280;53672;48.176;16.338;2022-08-19T22:45:15;98760.72;;;20.11;79.81
66762;BME280;53672;48.176;16.338;2022-08-19T22:50:16;98767.06;;;20.00;80.60
66762;BME280;53672;48.176;16.338;2022-08-19T22:55:17;98764.50;;;19.91;81.36
66762;BME280;53672;48.176;16.338;2022-08-19T23:00:19;98754.59;;;19.87;81.52
66762;BME280;53672;48.176;16.338;2022-08-19T23:05:21;98761.66;;;19.88;82.08
66762;BME280;53672;48.176;16.338;2022-08-19T23:10:22;98770.41;;;19.93;82.51
66762;BME280;53672;48.176;16.338;2022-08-19T23:15:26;98777.94;;;19.96;83.00
66762;BME280;53672;48.176;16.338;2022-08-19T23:20:29;98786.47;;;19.95;83.25
66762;BME280;53672;48.176;16.338;2022-08-19T23:25:31;98799.09;;;19.99;83.57
66762;BME280;53672;48.176;16.338;2022-08-19T23:30:36;98784.34;;;20.04;83.41
66762;BME280;53672;48.176;16.338;2022-08-19T23:35:37;98774.78;;;20.10;83.39
66762;BME280;53672;48.176;16.338;2022-08-19T23:40:38;98771.66;;;20.11;83.22
66762;BME280;53672;48.176;16.338;2022-08-19T23:45:41;98777.22;;;20.15;83.07
66762;BME280;53672;48.176;16.338;2022-08-19T23:50:43;98778.47;;;20.17;83.03
66762;BME280;53672;48.176;16.338;2022-08-19T23:55:45;98789.41;;;20.17;82.98
